createdAt,value
2018-10-07T00:02:19.887Z,1.00
2018-10-07T00:04:49.273Z,3.00
2018-10-07T00:07:18.466Z,3.00
2018-10-07T00:09:48.081Z,1.00
2018-10-07T00:12:17.278Z,1.00
2018-10-07T00:14:46.540Z,3.00
2018-10-07T00:17:16.694Z,2.50
2018-10-07T00:19:45.949Z,3.00
2018-10-07T00:22:15.223Z,1.00
2018-10-07T00:24:44.461Z,3.00
2018-10-07T00:27:14.142Z,2.50
2018-10-07T00:29:43.414Z,2.00
2018-10-07T00:32:16.386Z,1.00
2018-10-07T00:34:47.840Z,3.00
2018-10-07T00:37:18.851Z,1.00
2018-10-07T00:39:48.134Z,1.00
2018-10-07T00:42:18.634Z,0.00
2018-10-07T00:44:48.250Z,0.75
2018-10-07T00:47:17.475Z,0.75
2018-10-07T00:49:46.716Z,1.00
2018-10-07T00:52:15.937Z,1.00
2018-10-07T00:54:45.146Z,0.50
2018-10-07T00:57:14.433Z,1.00
2018-10-07T00:59:44.535Z,0.00
2018-10-07T01:02:13.807Z,0.00
2018-10-07T01:04:43.047Z,2.50
2018-10-07T01:07:12.414Z,0.00
2018-10-07T01:09:41.604Z,1.00
2018-10-07T01:12:10.847Z,1.00
2018-10-07T01:14:40.141Z,1.00
2018-10-07T01:17:09.373Z,1.00
2018-10-07T01:19:38.906Z,1.50
2018-10-07T01:22:08.720Z,0.75
2018-10-07T01:24:38.023Z,1.00
2018-10-07T01:27:07.543Z,0.25
2018-10-07T01:29:36.851Z,1.00
2018-10-07T01:32:06.311Z,2.00
2018-10-07T01:34:35.533Z,3.00
2018-10-07T01:37:04.797Z,0.00
2018-10-07T01:39:34.046Z,1.00
2018-10-07T01:42:03.262Z,1.00
2018-10-07T01:44:32.516Z,1.00
2018-10-07T01:47:01.771Z,1.50
2018-10-07T01:49:31.019Z,1.00
2018-10-07T01:52:00.238Z,1.00
2018-10-07T01:54:29.574Z,0.25
2018-10-07T01:56:58.847Z,1.00
2018-10-07T01:59:28.111Z,1.00
2018-10-07T02:01:58.326Z,0.00
2018-10-07T02:04:27.557Z,0.00
2018-10-07T02:06:56.814Z,0.00
2018-10-07T02:09:27.474Z,1.00
2018-10-07T02:11:56.674Z,0.00
2018-10-07T02:14:25.938Z,0.00
2018-10-07T02:16:55.254Z,1.00
2018-10-07T02:19:24.485Z,0.25
2018-10-07T02:21:53.725Z,0.00
2018-10-07T02:24:22.955Z,0.00
2018-10-07T02:26:52.171Z,1.00
2018-10-07T02:29:21.363Z,1.00
2018-10-07T02:31:50.646Z,2.00
2018-10-07T02:34:19.874Z,0.00
2018-10-07T02:36:49.147Z,0.75
2018-10-07T02:39:18.370Z,0.00
2018-10-07T02:41:47.610Z,1.00
2018-10-07T02:44:16.878Z,1.00
2018-10-07T02:46:46.181Z,0.00
2018-10-07T02:49:15.450Z,0.00
2018-10-07T02:51:44.705Z,1.00
2018-10-07T02:54:13.997Z,0.00
2018-10-07T02:56:43.439Z,0.00
2018-10-07T02:59:13.571Z,0.00
2018-10-07T03:01:42.906Z,1.00
2018-10-07T03:04:12.175Z,1.00
2018-10-07T03:06:41.643Z,0.00
2018-10-07T03:09:11.586Z,1.00
2018-10-07T03:11:40.914Z,2.00
2018-10-07T03:14:10.169Z,0.50
2018-10-07T03:16:39.413Z,0.00
2018-10-07T03:19:08.619Z,1.75
2018-10-07T03:21:37.866Z,2.50
2018-10-07T03:24:07.157Z,0.00
2018-10-07T03:26:36.421Z,0.00
2018-10-07T03:29:05.670Z,0.00
2018-10-07T03:31:34.851Z,0.00
2018-10-07T03:34:04.651Z,0.00
2018-10-07T03:36:33.874Z,0.00
2018-10-07T03:39:04.357Z,0.00
2018-10-07T03:41:33.616Z,0.75
2018-10-07T03:44:02.877Z,0.25
2018-10-07T03:46:32.163Z,0.00
2018-10-07T03:49:01.567Z,0.00
2018-10-07T03:51:30.854Z,0.00
2018-10-07T03:54:00.089Z,0.00
2018-10-07T03:56:29.343Z,0.00
2018-10-07T03:58:58.593Z,0.00
2018-10-07T04:01:27.863Z,0.75
2018-10-07T04:03:57.094Z,0.00
2018-10-07T04:06:26.390Z,1.00
2018-10-07T04:08:55.662Z,0.50
2018-10-07T04:11:24.901Z,0.00
2018-10-07T04:13:54.171Z,1.00
2018-10-07T04:16:23.501Z,0.00
2018-10-07T04:18:52.727Z,0.00
2018-10-07T04:21:21.932Z,0.00
2018-10-07T04:23:51.150Z,0.25
2018-10-07T04:26:20.509Z,0.00
2018-10-07T04:28:49.759Z,0.00
2018-10-07T04:31:19.021Z,0.00
2018-10-07T04:33:48.231Z,0.00
2018-10-07T04:36:17.418Z,0.00
2018-10-07T04:38:46.733Z,0.00
2018-10-07T04:41:16.162Z,0.00
2018-10-07T04:43:45.510Z,0.75
2018-10-07T04:46:14.926Z,0.00
2018-10-07T04:48:44.572Z,0.00
2018-10-07T04:51:14.062Z,0.00
2018-10-07T04:53:43.476Z,0.00
2018-10-07T04:56:13.057Z,0.00
2018-10-07T04:58:42.902Z,0.00
2018-10-07T05:01:12.203Z,0.00
2018-10-07T05:03:41.458Z,0.00
2018-10-07T05:06:10.845Z,0.00
2018-10-07T05:08:40.303Z,0.00
2018-10-07T05:11:09.675Z,1.00
2018-10-07T05:13:48.664Z,0.00
2018-10-07T05:16:50.720Z,0.50
2018-10-07T05:19:20.217Z,0.00
2018-10-07T05:21:49.601Z,0.25
2018-10-07T05:24:22.437Z,0.00
2018-10-07T05:26:51.849Z,0.00
2018-10-07T05:29:22.136Z,0.00
2018-10-07T05:31:52.904Z,0.75
2018-10-07T05:34:22.610Z,0.00
2018-10-07T05:36:52.315Z,0.00
2018-10-07T05:39:23.238Z,1.00
2018-10-07T05:41:52.892Z,0.25
2018-10-07T05:44:22.982Z,0.00
2018-10-07T05:46:52.386Z,0.00
2018-10-07T05:49:27.112Z,0.25
2018-10-07T05:51:58.809Z,0.00
2018-10-07T05:54:29.375Z,0.25
2018-10-07T05:57:00.333Z,0.00
2018-10-07T05:59:36.284Z,0.00
2018-10-07T06:02:08.282Z,0.00
2018-10-07T06:04:44.187Z,0.00
2018-10-07T06:07:14.039Z,0.00
2018-10-07T06:09:44.659Z,0.00
2018-10-07T06:12:14.093Z,0.00
2018-10-07T06:15:48.644Z,0.00
2018-10-07T06:18:18.465Z,0.00
2018-10-07T06:20:48.328Z,0.00
2018-10-07T06:23:17.986Z,0.00
2018-10-07T06:25:47.618Z,0.00
2018-10-07T06:28:17.138Z,0.00
2018-10-07T06:30:46.734Z,0.50
2018-10-07T06:33:17.311Z,0.00
2018-10-07T06:35:46.911Z,0.25
2018-10-07T06:38:17.110Z,0.00
2018-10-07T06:40:46.481Z,0.00
2018-10-07T06:43:15.919Z,0.00
2018-10-07T06:45:45.277Z,0.00
2018-10-07T06:48:14.530Z,0.00
2018-10-07T06:50:43.979Z,0.00
2018-10-07T06:53:13.374Z,0.75
2018-10-07T06:55:42.890Z,0.50
2018-10-07T06:58:12.637Z,0.00
2018-10-07T07:00:42.029Z,0.00
2018-10-07T07:03:11.498Z,0.75
2018-10-07T07:05:40.868Z,0.00
2018-10-07T07:08:10.168Z,0.00
2018-10-07T07:10:39.851Z,1.00
2018-10-07T07:13:09.507Z,1.00
2018-10-07T07:15:41.352Z,0.50
2018-10-07T07:18:12.376Z,1.00
2018-10-07T07:20:42.471Z,0.00
2018-10-07T07:23:11.781Z,0.50
2018-10-07T07:25:41.089Z,0.25
2018-10-07T07:28:10.367Z,0.00
2018-10-07T07:30:39.917Z,0.00
2018-10-07T07:33:09.218Z,0.75
2018-10-07T07:35:38.609Z,0.50
2018-10-07T07:38:07.905Z,0.00
2018-10-07T07:40:37.186Z,2.75
2018-10-07T07:43:06.585Z,0.00
2018-10-07T07:45:35.817Z,1.00
2018-10-07T07:48:05.058Z,1.00
2018-10-07T07:50:34.255Z,0.50
2018-10-07T07:53:03.511Z,3.00
2018-10-07T07:55:32.710Z,0.00
2018-10-07T07:58:01.933Z,0.00
2018-10-07T08:00:31.152Z,1.00
2018-10-07T08:03:00.506Z,0.00
2018-10-07T08:05:30.077Z,1.50
2018-10-07T08:07:59.312Z,0.00
2018-10-07T08:10:28.582Z,0.00
2018-10-07T08:12:58.532Z,1.00
2018-10-07T08:15:27.779Z,1.00
2018-10-07T08:17:57.081Z,0.00
2018-10-07T08:20:26.303Z,2.00
2018-10-07T08:22:55.507Z,1.00
2018-10-07T08:25:24.761Z,1.00
2018-10-07T08:27:55.547Z,0.75
2018-10-07T08:30:24.723Z,0.00
2018-10-07T08:32:53.951Z,1.00
2018-10-07T08:35:23.282Z,0.00
2018-10-07T08:37:52.443Z,1.00
2018-10-07T08:40:21.646Z,3.00
2018-10-07T08:42:50.854Z,1.00
2018-10-07T08:45:20.067Z,1.00
2018-10-07T08:47:49.269Z,1.00
2018-10-07T08:50:18.536Z,3.00
2018-10-07T08:52:47.745Z,1.50
2018-10-07T08:55:16.931Z,2.00
2018-10-07T08:57:46.146Z,1.00
2018-10-07T09:00:15.384Z,3.00
2018-10-07T09:02:44.625Z,1.00
2018-10-07T09:05:13.923Z,1.00
2018-10-07T09:07:43.147Z,1.00
2018-10-07T09:10:12.389Z,1.50
2018-10-07T09:12:41.592Z,3.00
2018-10-07T09:15:10.840Z,0.50
2018-10-07T09:17:40.048Z,0.75
2018-10-07T09:20:09.271Z,0.50
2018-10-07T09:22:38.494Z,1.00
2018-10-07T09:25:07.927Z,1.00
2018-10-07T09:27:37.517Z,0.75
2018-10-07T09:30:06.966Z,1.00
2018-10-07T09:32:36.568Z,1.00
2018-10-07T09:35:05.727Z,1.50
2018-10-07T09:37:34.936Z,0.50
2018-10-07T09:40:04.212Z,1.00
2018-10-07T09:42:33.459Z,1.00
2018-10-07T09:45:02.729Z,1.00
2018-10-07T09:47:33.202Z,1.00
2018-10-07T09:50:02.457Z,0.75
2018-10-07T09:52:31.663Z,1.00
2018-10-07T09:55:00.864Z,3.00
2018-10-07T09:57:30.126Z,1.00
2018-10-07T10:00:00.204Z,2.00
2018-10-07T10:02:29.433Z,2.50
2018-10-07T10:04:58.654Z,1.00
2018-10-07T10:07:27.887Z,2.75
2018-10-07T10:09:57.652Z,1.00
2018-10-07T10:12:26.870Z,1.00
2018-10-07T10:14:56.091Z,0.25
2018-10-07T10:17:26.057Z,1.00
2018-10-07T10:20:06.465Z,1.00
2018-10-07T10:22:58.866Z,2.00
2018-10-07T10:25:40.721Z,1.00
2018-10-07T10:28:17.839Z,1.00
2018-10-07T10:32:00.405Z,0.00
2018-10-07T10:34:41.709Z,0.00
2018-10-07T10:37:13.792Z,1.00
2018-10-07T10:39:51.364Z,0.75
2018-10-07T10:43:32.706Z,1.00
2018-10-07T10:46:10.414Z,1.00
2018-10-07T10:53:08.434Z,0.50
2018-10-07T10:55:48.467Z,0.00
2018-10-07T10:58:36.057Z,0.75
2018-10-07T11:01:31.094Z,0.00
2018-10-07T11:04:10.368Z,0.50
2018-10-07T11:06:59.591Z,0.75
2018-10-07T11:12:11.714Z,1.00
2018-10-07T11:14:55.208Z,0.00
2018-10-07T11:17:30.485Z,2.75
2018-10-07T11:20:11.755Z,0.75
2018-10-07T11:22:59.627Z,0.00
2018-10-07T11:26:43.360Z,1.00
2018-10-07T11:29:20.932Z,1.00
2018-10-07T11:31:57.010Z,1.00
2018-10-07T11:34:38.058Z,1.00
2018-10-07T11:37:19.880Z,0.00
2018-10-07T11:40:19.270Z,0.00
2018-10-07T11:42:55.539Z,3.00
2018-10-07T11:45:30.047Z,0.00
2018-10-07T11:48:10.334Z,1.00
2018-10-07T11:51:21.807Z,0.00
2018-10-07T11:53:55.441Z,1.00
2018-10-07T11:56:25.531Z,1.00
2018-10-07T11:58:54.741Z,1.25
2018-10-07T12:01:23.963Z,2.00
2018-10-07T12:03:53.234Z,1.75
2018-10-07T12:06:22.419Z,1.00
2018-10-07T12:08:51.687Z,1.00
2018-10-07T12:11:20.914Z,4.00
2018-10-07T12:13:50.183Z,1.75
2018-10-07T12:16:19.687Z,1.00
2018-10-07T12:18:48.943Z,1.00
2018-10-07T12:21:18.242Z,0.00
2018-10-07T12:23:47.451Z,0.25
2018-10-07T12:26:16.743Z,1.00
2018-10-07T12:28:46.895Z,0.00
2018-10-07T12:31:16.090Z,0.00
2018-10-07T12:33:45.271Z,0.50
2018-10-07T12:36:14.587Z,1.00
2018-10-07T12:38:43.812Z,0.00
2018-10-07T12:41:13.185Z,2.00
2018-10-07T12:43:42.404Z,1.25
2018-10-07T12:46:11.603Z,1.00
2018-10-07T12:48:40.850Z,0.25
2018-10-07T12:51:10.163Z,1.00
2018-10-07T12:53:39.426Z,1.00
2018-10-07T12:56:08.658Z,0.75
2018-10-07T12:58:37.808Z,0.00
2018-10-07T13:01:07.700Z,0.00
2018-10-07T13:03:36.941Z,0.00
2018-10-07T13:06:06.273Z,1.00
2018-10-07T13:08:35.978Z,0.00
2018-10-07T13:11:05.208Z,0.75
2018-10-07T13:13:34.444Z,0.75
2018-10-07T13:16:03.670Z,0.00
2018-10-07T13:18:32.871Z,0.00
2018-10-07T13:21:02.078Z,1.00
2018-10-07T13:23:31.289Z,0.25
2018-10-07T13:26:00.485Z,0.25
2018-10-07T13:28:29.675Z,0.00
2018-10-07T13:30:58.925Z,1.00
2018-10-07T13:33:28.164Z,0.00
2018-10-07T13:35:57.388Z,1.00
2018-10-07T13:38:26.583Z,1.00
2018-10-07T13:40:56.781Z,0.50
2018-10-07T13:43:25.999Z,0.25
2018-10-07T13:45:55.190Z,0.00
2018-10-07T13:48:24.405Z,0.75
2018-10-07T13:50:53.655Z,2.00
2018-10-07T13:53:22.962Z,1.00
2018-10-07T13:55:52.135Z,1.00
2018-10-07T13:58:21.351Z,1.00
2018-10-07T14:00:50.558Z,1.00
2018-10-07T14:03:19.770Z,1.00
2018-10-07T14:05:48.969Z,0.25
2018-10-07T14:08:18.163Z,0.25
2018-10-07T14:10:47.401Z,1.25
2018-10-07T14:13:23.010Z,0.00
2018-10-07T14:15:52.319Z,0.00
2018-10-07T14:18:21.534Z,0.00
2018-10-07T14:20:50.718Z,1.00
2018-10-07T14:23:19.931Z,1.00
2018-10-07T14:25:49.163Z,2.00
2018-10-07T14:28:18.361Z,0.50
2018-10-07T14:30:47.599Z,0.50
2018-10-07T14:33:17.660Z,1.00
2018-10-07T14:35:47.339Z,0.00
2018-10-07T14:38:16.547Z,1.00
2018-10-07T14:40:45.779Z,0.75
2018-10-07T14:43:15.123Z,0.50
2018-10-07T14:45:44.315Z,0.75
2018-10-07T14:48:13.510Z,0.50
2018-10-07T14:50:42.713Z,0.00
2018-10-07T14:53:11.955Z,1.00
2018-10-07T14:55:41.134Z,1.00
2018-10-07T14:58:10.325Z,1.00
2018-10-07T15:00:39.564Z,0.00
2018-10-07T15:03:08.798Z,0.75
2018-10-07T15:05:38.029Z,1.00
2018-10-07T15:08:07.250Z,1.00
2018-10-07T15:10:36.453Z,0.50
2018-10-07T15:13:05.685Z,1.00
2018-10-07T15:15:34.885Z,0.00
2018-10-07T15:18:04.110Z,1.00
2018-10-07T15:20:33.321Z,1.00
2018-10-07T15:23:02.510Z,1.00
2018-10-07T15:25:31.712Z,1.00
2018-10-07T15:28:00.913Z,1.00
2018-10-07T15:30:30.106Z,0.00
2018-10-07T15:32:59.283Z,1.00
2018-10-07T15:35:28.527Z,2.00
2018-10-07T15:37:57.682Z,1.25
2018-10-07T15:40:26.900Z,1.00
2018-10-07T15:42:56.082Z,1.00
2018-10-07T15:45:25.309Z,1.00
2018-10-07T15:47:54.482Z,0.75
2018-10-07T15:50:23.678Z,1.75
2018-10-07T15:52:52.881Z,1.25
2018-10-07T15:55:22.087Z,1.00
2018-10-07T15:57:51.289Z,2.00
2018-10-07T16:00:20.481Z,1.75
2018-10-07T16:02:49.817Z,1.00
2018-10-07T16:05:19.014Z,1.00
2018-10-07T16:07:48.229Z,3.75
2018-10-07T16:10:17.397Z,2.25
2018-10-07T16:12:46.567Z,4.00
2018-10-07T16:15:15.787Z,2.00
2018-10-07T16:17:44.962Z,1.25
2018-10-07T16:20:14.151Z,2.00
2018-10-07T16:22:43.374Z,1.00
2018-10-07T16:25:12.572Z,3.25
2018-10-07T16:27:41.770Z,2.50
2018-10-07T16:30:10.987Z,3.00
2018-10-07T16:32:40.168Z,2.75
2018-10-07T16:35:09.353Z,2.75
2018-10-07T16:37:38.519Z,2.75
2018-10-07T16:40:07.741Z,1.00
2018-10-07T16:42:36.899Z,1.00
2018-10-07T16:45:06.354Z,3.00
2018-10-07T16:47:35.460Z,3.00
2018-10-07T16:50:04.675Z,3.50
2018-10-07T16:52:33.887Z,9.00
2018-10-07T16:55:03.081Z,21.50
2018-10-07T16:57:32.307Z,32.00
2018-10-07T17:00:01.504Z,25.00
2018-10-07T17:02:30.682Z,14.75
2018-10-07T17:04:59.866Z,15.00
2018-10-07T17:07:29.052Z,26.00
2018-10-07T17:09:58.262Z,23.50
2018-10-07T17:12:27.491Z,23.00
2018-10-07T17:14:56.702Z,11.25
2018-10-07T17:17:25.903Z,19.00
2018-10-07T17:19:55.115Z,12.00
2018-10-07T17:22:24.347Z,8.25
2018-10-07T17:24:53.520Z,7.00
2018-10-07T17:27:22.736Z,9.50
2018-10-07T17:29:51.910Z,12.75
2018-10-07T17:32:21.116Z,14.00
2018-10-07T17:34:50.294Z,10.50
2018-10-07T17:37:19.486Z,11.50
2018-10-07T17:39:48.702Z,6.00
2018-10-07T17:42:17.937Z,9.00
2018-10-07T17:44:47.152Z,11.00
2018-10-07T17:47:16.334Z,9.00
2018-10-07T17:49:45.540Z,8.00
2018-10-07T17:52:14.889Z,8.00
2018-10-07T17:54:44.153Z,4.50
2018-10-07T17:57:13.342Z,6.00
2018-10-07T17:59:42.546Z,6.50
2018-10-07T18:02:11.764Z,6.00
2018-10-07T18:04:40.976Z,8.25
2018-10-07T18:07:10.250Z,8.00
2018-10-07T18:09:39.441Z,16.00
2018-10-07T18:12:08.665Z,21.25
2018-10-07T18:14:37.885Z,17.75
2018-10-07T18:17:07.170Z,16.00
2018-10-07T18:19:36.395Z,13.00
2018-10-07T18:22:05.665Z,12.75
2018-10-07T18:24:34.927Z,22.25
2018-10-07T18:27:04.133Z,26.25
2018-10-07T18:29:33.442Z,24.75
2018-10-07T18:32:02.690Z,19.00
2018-10-07T18:34:32.021Z,11.75
2018-10-07T18:37:01.202Z,10.50
2018-10-07T18:39:30.423Z,18.75
2018-10-07T18:41:59.665Z,37.25
2018-10-07T18:44:28.859Z,42.00
2018-10-07T18:46:58.087Z,19.50
2018-10-07T18:49:27.318Z,14.25
2018-10-07T18:51:56.602Z,10.00
2018-10-07T18:54:25.832Z,14.50
2018-10-07T18:56:55.106Z,14.50
2018-10-07T18:59:24.413Z,16.50
2018-10-07T19:01:53.698Z,13.75
2018-10-07T19:04:22.955Z,8.50
2018-10-07T19:06:52.306Z,10.00
2018-10-07T19:09:21.727Z,8.50
2018-10-07T19:11:50.945Z,12.00
2018-10-07T19:14:20.741Z,15.00
2018-10-07T19:16:51.187Z,22.00
2018-10-07T19:19:20.458Z,24.00
2018-10-07T19:21:49.751Z,25.25
2018-10-07T19:24:18.947Z,24.00
2018-10-07T19:26:48.205Z,34.25
2018-10-07T19:29:23.239Z,38.25
2018-10-07T19:31:53.077Z,27.50
2018-10-07T19:34:22.691Z,21.00
2018-10-07T19:36:52.728Z,15.00
2018-10-07T19:39:22.878Z,16.00
2018-10-07T19:41:52.101Z,18.50
2018-10-07T19:44:22.502Z,14.00
2018-10-07T19:46:52.258Z,16.00
2018-10-07T19:49:22.050Z,12.00
2018-10-07T19:51:51.255Z,12.00
2018-10-07T19:54:20.501Z,15.00
2018-10-07T19:56:49.739Z,11.00
2018-10-07T19:59:19.005Z,14.00
2018-10-07T20:01:48.218Z,8.75
2018-10-07T20:04:17.473Z,9.50
2018-10-07T20:06:46.678Z,10.00
2018-10-07T20:09:15.943Z,10.00
2018-10-07T20:11:45.177Z,8.25
2018-10-07T20:14:14.406Z,8.00
2018-10-07T20:16:43.603Z,10.50
2018-10-07T20:19:12.869Z,15.75
2018-10-07T20:21:42.055Z,13.50
2018-10-07T20:24:11.280Z,10.00
2018-10-07T20:26:40.550Z,8.25
2018-10-07T20:29:09.930Z,8.75
2018-10-07T20:31:39.151Z,8.75
2018-10-07T20:34:08.371Z,8.75
2018-10-07T20:36:37.672Z,10.00
2018-10-07T20:39:08.935Z,10.00
2018-10-07T20:41:38.634Z,9.00
2018-10-07T20:44:07.881Z,8.25
2018-10-07T20:46:37.094Z,8.25
2018-10-07T20:49:06.367Z,12.00
2018-10-07T20:51:35.634Z,10.00
2018-10-07T20:54:04.844Z,13.50
2018-10-07T20:56:34.051Z,9.00
2018-10-07T20:59:03.303Z,12.00
2018-10-07T21:01:32.586Z,10.00
2018-10-07T21:04:01.832Z,13.00
2018-10-07T21:06:31.057Z,8.75
2018-10-07T21:09:00.319Z,12.00
2018-10-07T21:11:29.577Z,7.25
2018-10-07T21:13:58.851Z,9.00
2018-10-07T21:16:28.097Z,9.50
2018-10-07T21:18:57.309Z,9.00
2018-10-07T21:21:26.617Z,10.00
2018-10-07T21:23:55.907Z,9.25
2018-10-07T21:26:25.149Z,9.25
2018-10-07T21:28:54.388Z,8.75
2018-10-07T21:31:23.622Z,10.00
2018-10-07T21:33:52.912Z,11.00
2018-10-07T21:36:22.188Z,8.75
2018-10-07T21:38:51.489Z,11.75
2018-10-07T21:41:20.742Z,10.50
2018-10-07T21:43:49.946Z,11.75
2018-10-07T21:46:19.195Z,8.50
2018-10-07T21:48:48.417Z,9.50
2018-10-07T21:51:17.638Z,9.00
2018-10-07T21:53:46.875Z,7.50
2018-10-07T21:56:16.099Z,9.25
2018-10-07T21:58:45.350Z,10.00
2018-10-07T22:01:14.633Z,13.00
2018-10-07T22:03:43.830Z,7.50
2018-10-07T22:06:13.075Z,9.00
2018-10-07T22:08:42.326Z,9.75
2018-10-07T22:11:11.582Z,9.50
2018-10-07T22:13:40.858Z,11.00
2018-10-07T22:16:10.159Z,8.00
2018-10-07T22:18:39.494Z,10.50
2018-10-07T22:21:08.691Z,9.50
2018-10-07T22:23:37.898Z,9.00
2018-10-07T22:26:07.265Z,7.00
2018-10-07T22:28:36.446Z,5.00
2018-10-07T22:31:05.733Z,7.00
2018-10-07T22:33:34.920Z,11.00
2018-10-07T22:36:04.142Z,8.00
2018-10-07T22:38:33.397Z,7.50
2018-10-07T22:41:02.625Z,9.00
2018-10-07T22:43:31.814Z,8.00
2018-10-07T22:46:01.056Z,6.50
2018-10-07T22:48:30.283Z,7.00
2018-10-07T22:50:59.537Z,11.00
2018-10-07T22:53:28.752Z,5.00
2018-10-07T22:55:57.980Z,7.50
2018-10-07T22:58:27.197Z,7.50
2018-10-07T23:00:57.195Z,9.50
2018-10-07T23:03:26.409Z,10.00
2018-10-07T23:05:55.643Z,11.00
2018-10-07T23:08:24.932Z,10.00
2018-10-07T23:10:54.190Z,10.50
2018-10-07T23:13:23.410Z,8.00
2018-10-07T23:15:52.681Z,11.00
2018-10-07T23:18:22.103Z,7.00
2018-10-07T23:20:51.301Z,8.00
2018-10-07T23:23:20.503Z,7.00
2018-10-07T23:25:49.733Z,7.00
2018-10-07T23:28:18.905Z,9.00
2018-10-07T23:30:48.123Z,10.00
2018-10-07T23:33:17.339Z,9.00
2018-10-07T23:35:46.557Z,6.50
2018-10-07T23:38:15.740Z,7.00
2018-10-07T23:40:46.890Z,8.00
2018-10-07T23:43:16.166Z,6.50
2018-10-07T23:45:45.453Z,7.00
2018-10-07T23:48:15.196Z,5.00
2018-10-07T23:50:44.397Z,7.00
2018-10-07T23:53:13.588Z,6.50
2018-10-07T23:55:42.794Z,4.00
2018-10-07T23:58:12.039Z,7.00
